Time;durP1;ratioP1;P1;durP2;ratioP2;P2;SDS_P1;SDS_P2;PMS_P1;PMS_P2;Temp;Humidity;BMP_temperature;BMP_pressure;BME280_temperature;BME280_humidity;BME280_pressure;Samples;Min_cycle;Max_cycle;Signal;HPM_P1;HPM_P2
2022/10/04 00:00:49;;;;;;;5.70;0.63;;;;;;;;;;7380379;19;20482;-71
2022/10/04 00:03:28;;;;;;;0.40;0.40;;;;;;;;;;7378556;19;20121;-71
2022/10/04 00:05:56;;;;;;;0.20;0.20;;;;;;;;;;7382678;19;20128;-71
2022/10/04 00:08:35;;;;;;;0.30;0.30;;;;;;;;;;7381152;19;20133;-71
2022/10/04 00:11:16;;;;;;;0.67;0.60;;;;;;;;;;7377336;19;20197;-72
2022/10/04 00:13:49;;;;;;;0.30;0.30;;;;;;;;;;7381658;19;20125;-71
2022/10/04 00:16:21;;;;;;;0.30;0.30;;;;;;;;;;7381713;19;20449;-71
2022/10/04 00:18:46;;;;;;;0.43;0.43;;;;;;;;;;7383184;19;20520;-71
2022/10/04 00:21:12;;;;;;;0.20;0.20;;;;;;;;;;7377005;19;20609;-72
2022/10/04 00:23:37;;;;;;;0.30;0.30;;;;;;;;;;7378237;19;20571;-72
2022/10/04 00:26:14;;;;;;;0.40;0.40;;;;;;;;;;7380113;19;20110;-72
2022/10/04 00:28:45;;;;;;;0.20;0.20;;;;;;;;;;7380346;19;20113;-71
2022/10/04 00:31:17;;;;;;;0.30;0.30;;;;;;;;;;7377814;19;20136;-71
2022/10/04 00:33:50;;;;;;;0.30;0.30;;;;;;;;;;7381406;19;21488;-72
2022/10/04 00:39:38;;;;;;;0.30;0.30;;;;;;;;;;7385617;19;20112;-71
2022/10/04 00:42:09;;;;;;;0.30;0.30;;;;;;;;;;7386195;19;20121;-72
2022/10/04 00:44:40;;;;;;;0.27;0.27;;;;;;;;;;7383188;19;20153;-71
2022/10/04 00:47:20;;;;;;;0.20;0.20;;;;;;;;;;7388707;19;20110;-72
2022/10/04 00:49:47;;;;;;;0.30;0.30;;;;;;;;;;7389455;19;20116;-71
2022/10/04 00:52:23;;;;;;;0.20;0.20;;;;;;;;;;7391691;19;20125;-71
2022/10/04 00:54:51;;;;;;;0.30;0.30;;;;;;;;;;7385990;19;20144;-71
2022/10/04 00:57:20;;;;;;;0.20;0.20;;;;;;;;;;7383527;19;20141;-71
2022/10/04 00:59:47;;;;;;;0.30;0.30;;;;;;;;;;7381184;19;20619;-71
2022/10/04 01:02:16;;;;;;;0.20;0.20;;;;;;;;;;7387312;19;20121;-72
2022/10/04 01:04:46;;;;;;;0.30;0.30;;;;;;;;;;7386273;19;20180;-72
2022/10/04 01:07:16;;;;;;;0.27;0.27;;;;;;;;;;7389816;19;20106;-72
2022/10/04 01:09:49;;;;;;;0.30;0.30;;;;;;;;;;7389305;19;20109;-71
2022/10/04 01:12:43;;;;;;;0.73;0.73;;;;;;;;;;7387111;19;20597;-72
2022/10/04 01:15:48;;;;;;;0.50;0.50;;;;;;;;;;7386802;19;20171;-72
2022/10/04 01:18:19;;;;;;;0.30;0.30;;;;;;;;;;7391285;19;20109;-71
2022/10/04 01:21:04;;;;;;;0.23;0.23;;;;;;;;;;7387486;19;20125;-72
2022/10/04 01:23:37;;;;;;;0.30;0.30;;;;;;;;;;7391277;19;20117;-71
2022/10/04 01:26:25;;;;;;;0.30;0.30;;;;;;;;;;7389481;19;20117;-72
2022/10/04 01:28:52;;;;;;;0.23;0.23;;;;;;;;;;7391576;19;20200;-72
2022/10/04 01:31:17;;;;;;;0.20;0.20;;;;;;;;;;7387490;19;20124;-72
2022/10/04 01:33:42;;;;;;;0.30;0.30;;;;;;;;;;7387318;19;20181;-71
2022/10/04 01:36:08;;;;;;;0.40;0.40;;;;;;;;;;7388192;19;20118;-71
2022/10/04 01:38:33;;;;;;;0.30;0.30;;;;;;;;;;7388584;19;20133;-72
2022/10/04 01:41:01;;;;;;;0.43;0.43;;;;;;;;;;7386872;19;20129;-71
2022/10/04 01:43:32;;;;;;;0.30;0.30;;;;;;;;;;7387508;19;20502;-72
2022/10/04 01:46:05;;;;;;;0.33;0.33;;;;;;;;;;7388905;19;20117;-71
2022/10/04 01:48:35;;;;;;;0.50;0.50;;;;;;;;;;7389750;19;20106;-71
2022/10/04 01:51:07;;;;;;;0.30;0.30;;;;;;;;;;7387724;19;20113;-71
2022/10/04 01:53:41;;;;;;;0.20;0.20;;;;;;;;;;7386841;19;20131;-71
2022/10/04 01:56:10;;;;;;;0.20;0.20;;;;;;;;;;7388224;19;20582;-71
2022/10/04 01:58:43;;;;;;;0.20;0.20;;;;;;;;;;7386429;19;20898;-71
2022/10/04 02:01:14;;;;;;;0.53;0.53;;;;;;;;;;7387033;19;20121;-71
2022/10/04 02:03:51;;;;;;;0.30;0.30;;;;;;;;;;7387842;19;20575;-71
2022/10/04 02:06:17;;;;;;;0.30;0.30;;;;;;;;;;7388384;19;20109;-71
2022/10/04 02:08:50;;;;;;;0.30;0.30;;;;;;;;;;7388348;19;20119;-71
2022/10/04 02:11:20;;;;;;;0.20;0.20;;;;;;;;;;7386812;19;20102;-71
2022/10/04 02:13:47;;;;;;;0.30;0.30;;;;;;;;;;7380458;19;20157;-71
2022/10/04 02:16:13;;;;;;;0.20;0.20;;;;;;;;;;7384895;19;20116;-71
2022/10/04 02:18:40;;;;;;;0.60;0.60;;;;;;;;;;7386863;19;20110;-72
2022/10/04 02:21:06;;;;;;;0.27;0.27;;;;;;;;;;7383424;19;20117;-71
2022/10/04 02:23:33;;;;;;;0.20;0.20;;;;;;;;;;7385331;19;20101;-71
2022/10/04 02:25:58;;;;;;;2.13;0.43;;;;;;;;;;7386085;19;20146;-71
2022/10/04 02:28:24;;;;;;;0.30;0.30;;;;;;;;;;7386518;19;20109;-71
2022/10/04 02:33:43;;;;;;;0.30;0.30;;;;;;;;;;7385710;19;20128;-71
2022/10/04 02:36:09;;;;;;;0.20;0.20;;;;;;;;;;7386378;19;20129;-71
2022/10/04 02:38:48;;;;;;;0.27;0.27;;;;;;;;;;7386264;19;20835;-71
2022/10/04 02:41:24;;;;;;;0.30;0.30;;;;;;;;;;7380944;19;20113;-71
2022/10/04 02:43:55;;;;;;;0.63;0.63;;;;;;;;;;7382344;19;20136;-71
2022/10/04 02:46:27;;;;;;;0.47;0.47;;;;;;;;;;7386055;19;20129;-71
2022/10/04 02:48:59;;;;;;;0.20;0.20;;;;;;;;;;7388265;19;20136;-71
2022/10/04 02:51:38;;;;;;;0.30;0.30;;;;;;;;;;7381511;19;20729;-71
2022/10/04 02:54:26;;;;;;;0.30;0.30;;;;;;;;;;7386716;19;20125;-71
2022/10/04 02:56:52;;;;;;;0.30;0.30;;;;;;;;;;7387211;19;20177;-72
2022/10/04 02:59:17;;;;;;;0.30;0.30;;;;;;;;;;7382119;19;20135;-72
2022/10/04 03:01:53;;;;;;;0.40;0.40;;;;;;;;;;7378450;19;20469;-70
2022/10/04 03:04:24;;;;;;;0.60;0.60;;;;;;;;;;7377475;19;20530;-70
2022/10/04 03:06:51;;;;;;;0.30;0.30;;;;;;;;;;7386529;19;20759;-70
2022/10/04 03:09:18;;;;;;;0.30;0.30;;;;;;;;;;7379001;19;20112;-70
2022/10/04 03:11:45;;;;;;;0.30;0.30;;;;;;;;;;7379933;19;20125;-70
2022/10/04 03:14:20;;;;;;;0.33;0.33;;;;;;;;;;7384377;19;20156;-70
2022/10/04 03:16:48;;;;;;;0.40;0.40;;;;;;;;;;7385417;19;20449;-72
2022/10/04 03:19:14;;;;;;;0.30;0.30;;;;;;;;;;7383103;19;20133;-72
2022/10/04 03:21:41;;;;;;;0.20;0.20;;;;;;;;;;7377753;19;20125;-69
2022/10/04 03:24:09;;;;;;;0.30;0.30;;;;;;;;;;7380375;19;20160;-72
2022/10/04 03:26:41;;;;;;;0.20;0.20;;;;;;;;;;7381851;19;20521;-71
2022/10/04 03:29:09;;;;;;;0.20;0.20;;;;;;;;;;7384531;19;20109;-69
2022/10/04 03:31:42;;;;;;;0.20;0.20;;;;;;;;;;7385949;19;20136;-72
2022/10/04 03:34:16;;;;;;;0.30;0.30;;;;;;;;;;7384598;19;20125;-72
2022/10/04 03:36:42;;;;;;;0.20;0.20;;;;;;;;;;7383564;19;20151;-72
2022/10/04 03:39:09;;;;;;;0.30;0.30;;;;;;;;;;7385459;19;20110;-69
2022/10/04 03:41:38;;;;;;;0.30;0.30;;;;;;;;;;7386696;19;20113;-72
2022/10/04 03:44:07;;;;;;;0.30;0.30;;;;;;;;;;7382986;19;20152;-69
2022/10/04 03:46:32;;;;;;;0.50;0.50;;;;;;;;;;7383523;19;20109;-72
2022/10/04 03:48:58;;;;;;;0.37;0.37;;;;;;;;;;7385805;19;20115;-72
2022/10/04 03:51:25;;;;;;;0.30;0.30;;;;;;;;;;7384389;19;20134;-72
2022/10/04 03:53:53;;;;;;;0.20;0.20;;;;;;;;;;7384959;19;20507;-69
2022/10/04 03:56:27;;;;;;;0.40;0.40;;;;;;;;;;7386303;19;20196;-72
2022/10/04 03:58:54;;;;;;;0.40;0.40;;;;;;;;;;7388332;19;20112;-72
2022/10/04 10:06:11;;;;;;;0.40;0.40;;;;;;;;;;7393063;19;20200;-71
2022/10/04 10:09:01;;;;;;;1.38;1.38;;;;;;;;;;7388119;19;20479;-72
2022/10/04 10:14:52;;;;;;;0.82;0.82;;;;;;;;;;7387724;19;20149;-72
2022/10/04 10:17:43;;;;;;;0.40;0.40;;;;;;;;;;7388083;19;20594;-72
2022/10/04 10:20:21;;;;;;;0.30;0.30;;;;;;;;;;7388300;19;20120;-71
2022/10/04 10:23:16;;;;;;;0.30;0.30;;;;;;;;;;7386065;19;20136;-72
2022/10/04 10:25:47;;;;;;;0.40;0.40;;;;;;;;;;7381075;19;20635;-72
2022/10/04 10:28:37;;;;;;;0.40;0.40;;;;;;;;;;7380691;19;20125;-72
2022/10/04 10:31:23;;;;;;;0.32;0.32;;;;;;;;;;7379650;19;20109;-72
2022/10/04 10:34:36;;;;;;;0.30;0.30;;;;;;;;;;7380335;19;20129;-72
2022/10/04 10:37:04;;;;;;;0.90;0.90;;;;;;;;;;7376854;19;20109;-72
2022/10/04 10:39:48;;;;;;;0.30;0.30;;;;;;;;;;7376661;19;20121;-72
2022/10/04 10:42:32;;;;;;;0.30;0.30;;;;;;;;;;7379391;19;20117;-72
2022/10/04 10:45:32;;;;;;;0.40;0.40;;;;;;;;;;7384725;19;20233;-72
2022/10/04 10:48:23;;;;;;;0.60;0.60;;;;;;;;;;7386069;19;20137;-72
2022/10/04 10:50:58;;;;;;;0.38;0.38;;;;;;;;;;7384664;19;20221;-72
2022/10/04 10:53:47;;;;;;;0.52;0.52;;;;;;;;;;7381305;19;20655;-71
2022/10/04 10:56:44;;;;;;;0.68;0.68;;;;;;;;;;7388734;19;20148;-71
2022/10/04 10:59:50;;;;;;;0.63;0.63;;;;;;;;;;7387260;19;20102;-71
2022/10/04 11:02:41;;;;;;;0.75;0.75;;;;;;;;;;7386795;19;20121;-72
2022/10/04 11:05:25;;;;;;;0.73;0.73;;;;;;;;;;7384927;19;20216;-72
2022/10/04 11:07:54;;;;;;;0.75;0.75;;;;;;;;;;7383323;19;20124;-71
2022/10/04 11:10:41;;;;;;;0.85;0.85;;;;;;;;;;7379966;19;20634;-72
2022/10/04 11:13:41;;;;;;;0.52;0.52;;;;;;;;;;7385062;19;20148;-71
2022/10/04 11:16:20;;;;;;;0.85;0.85;;;;;;;;;;7377879;19;20133;-72
2022/10/04 11:18:48;;;;;;;0.43;0.43;;;;;;;;;;7383344;19;20123;-72
2022/10/04 11:21:24;;;;;;;0.63;0.63;;;;;;;;;;7387657;19;20190;-72
2022/10/04 11:23:58;;;;;;;0.40;0.40;;;;;;;;;;7387681;19;20128;-72
2022/10/04 11:26:39;;;;;;;0.60;0.60;;;;;;;;;;7388662;19;20123;-72
2022/10/04 11:29:19;;;;;;;0.30;0.30;;;;;;;;;;7377688;19;20482;-73
2022/10/04 11:32:00;;;;;;;1.40;1.30;;;;;;;;;;7384163;19;20179;-72
2022/10/04 11:34:59;;;;;;;0.40;0.40;;;;;;;;;;7384231;19;20144;-72
2022/10/04 11:37:42;;;;;;;0.30;0.30;;;;;;;;;;7384368;19;20136;-72
2022/10/04 11:40:23;;;;;;;0.80;0.80;;;;;;;;;;7383403;19;20124;-72
2022/10/04 11:43:06;;;;;;;0.95;0.50;;;;;;;;;;7382335;19;20164;-72
2022/10/04 11:46:03;;;;;;;0.43;0.43;;;;;;;;;;7383072;19;20133;-72
2022/10/04 11:48:52;;;;;;;0.43;0.43;;;;;;;;;;7384334;19;20119;-73
2022/10/04 11:51:46;;;;;;;0.40;0.40;;;;;;;;;;7381844;19;20113;-73
2022/10/04 11:54:36;;;;;;;0.30;0.30;;;;;;;;;;7378543;19;20486;-72
2022/10/04 11:57:30;;;;;;;0.30;0.30;;;;;;;;;;7369699;19;20251;-73
2022/10/04 12:03:56;;;;;;;0.30;0.30;;;;;;;;;;7374578;19;20121;-73
2022/10/04 12:06:34;;;;;;;0.70;0.70;;;;;;;;;;7370501;19;20511;-72
2022/10/04 12:09:08;;;;;;;0.30;0.30;;;;;;;;;;7370768;19;20132;-73
2022/10/04 12:15:03;;;;;;;0.52;0.52;;;;;;;;;;7377123;19;20701;-73
2022/10/04 12:18:00;;;;;;;0.85;0.85;;;;;;;;;;7384817;19;20108;-73
2022/10/04 12:23:52;;;;;;;0.30;0.30;;;;;;;;;;7387119;19;20120;-73
2022/10/04 12:26:55;;;;;;;0.40;0.40;;;;;;;;;;7385425;19;20115;-73
2022/10/04 12:29:47;;;;;;;0.40;0.40;;;;;;;;;;7392780;19;20128;-73
2022/10/04 12:32:17;;;;;;;0.50;0.50;;;;;;;;;;7392923;19;20101;-73
2022/10/04 12:35:07;;;;;;;0.40;0.40;;;;;;;;;;7391043;19;20142;-73
2022/10/04 12:37:37;;;;;;;0.40;0.40;;;;;;;;;;7390113;19;20113;-73
2022/10/04 12:40:08;;;;;;;0.45;0.45;;;;;;;;;;7390933;19;20125;-73
2022/10/04 12:42:49;;;;;;;0.50;0.50;;;;;;;;;;7383184;19;20462;-73
2022/10/04 12:45:26;;;;;;;0.75;0.75;;;;;;;;;;7384402;19;20479;-73
2022/10/04 12:47:51;;;;;;;1.95;0.55;;;;;;;;;;7387920;19;20109;-75
2022/10/04 12:50:34;;;;;;;0.30;0.30;;;;;;;;;;7390192;19;20113;-75
2022/10/04 12:53:15;;;;;;;0.68;0.68;;;;;;;;;;7389168;19;20113;-74
2022/10/04 12:56:12;;;;;;;1.27;0.70;;;;;;;;;;7385613;19;20560;-75
2022/10/04 12:59:02;;;;;;;0.88;0.50;;;;;;;;;;7386790;19;20113;-72
2022/10/04 13:01:37;;;;;;;0.50;0.50;;;;;;;;;;7387007;19;20109;-72
2022/10/04 13:04:22;;;;;;;0.50;0.50;;;;;;;;;;7388008;19;20606;-72
2022/10/04 13:17:09;;;;;;;0.63;0.63;;;;;;;;;;7387372;19;20508;-72
2022/10/04 13:19:43;;;;;;;0.40;0.40;;;;;;;;;;7389514;19;20113;-72
2022/10/04 13:22:20;;;;;;;0.35;0.35;;;;;;;;;;7387855;19;20208;-73
2022/10/04 13:24:54;;;;;;;0.40;0.40;;;;;;;;;;7389920;19;20132;-72
2022/10/04 13:27:31;;;;;;;0.43;0.43;;;;;;;;;;7388627;19;20113;-72
2022/10/04 13:30:19;;;;;;;0.30;0.30;;;;;;;;;;7386380;19;20101;-73
2022/10/04 13:33:07;;;;;;;0.30;0.30;;;;;;;;;;7386105;19;20121;-72
2022/10/04 13:35:47;;;;;;;0.57;0.50;;;;;;;;;;7385916;19;20565;-72
2022/10/04 13:38:34;;;;;;;0.40;0.40;;;;;;;;;;7384549;19;20156;-74
2022/10/04 13:41:24;;;;;;;0.50;0.50;;;;;;;;;;7387427;19;20177;-75
2022/10/04 13:44:01;;;;;;;0.40;0.40;;;;;;;;;;7387446;19;20121;-75
2022/10/04 13:46:26;;;;;;;0.35;0.35;;;;;;;;;;7389997;19;20156;-75
2022/10/04 13:49:19;;;;;;;0.50;0.50;;;;;;;;;;7388197;19;20471;-75
2022/10/04 13:58:25;;;;;;;0.40;0.40;;;;;;;;;;7382759;19;20126;-74
2022/10/04 14:01:14;;;;;;;0.30;0.30;;;;;;;;;;7388051;19;20487;-73
2022/10/04 14:03:59;;;;;;;0.30;0.30;;;;;;;;;;7387023;19;20144;-74
2022/10/04 14:06:33;;;;;;;0.30;0.30;;;;;;;;;;7387261;19;20117;-74
2022/10/04 14:09:23;;;;;;;0.45;0.45;;;;;;;;;;7388871;19;20184;-74
2022/10/04 14:12:12;;;;;;;0.30;0.30;;;;;;;;;;7388791;19;20117;-73
2022/10/04 14:14:53;;;;;;;0.30;0.30;;;;;;;;;;7386689;19;20140;-74
2022/10/04 14:17:47;;;;;;;0.22;0.22;;;;;;;;;;7389524;19;20477;-74
2022/10/04 14:20:42;;;;;;;0.70;0.63;;;;;;;;;;7387793;19;20591;-72
2022/10/04 14:23:29;;;;;;;0.30;0.30;;;;;;;;;;7384301;19;20583;-71
2022/10/04 14:26:11;;;;;;;0.30;0.30;;;;;;;;;;7377725;19;20132;-72
2022/10/04 14:29:09;;;;;;;0.43;0.43;;;;;;;;;;7383075;19;20109;-74
2022/10/04 14:32:02;;;;;;;0.30;0.30;;;;;;;;;;7384278;19;20121;-73
2022/10/04 14:34:39;;;;;;;0.30;0.30;;;;;;;;;;7383139;19;20185;-74
2022/10/04 14:37:32;;;;;;;0.40;0.40;;;;;;;;;;7380411;19;20120;-74
2022/10/04 14:40:13;;;;;;;0.20;0.20;;;;;;;;;;7376968;19;20125;-73
2022/10/04 14:43:03;;;;;;;0.95;0.95;;;;;;;;;;7378084;19;20113;-73
2022/10/04 14:45:42;;;;;;;0.73;0.73;;;;;;;;;;7376726;19;20156;-74
2022/10/04 14:48:44;;;;;;;0.30;0.30;;;;;;;;;;7385080;19;20105;-73
2022/10/04 14:51:28;;;;;;;0.30;0.30;;;;;;;;;;7381484;19;20128;-74
2022/10/04 14:54:07;;;;;;;0.30;0.30;;;;;;;;;;7386016;19;20133;-74
2022/10/04 14:56:57;;;;;;;0.30;0.30;;;;;;;;;;7383886;19;20503;-74
2022/10/04 14:59:51;;;;;;;0.30;0.30;;;;;;;;;;7383735;19;20133;-74
2022/10/04 15:02:34;;;;;;;0.30;0.30;;;;;;;;;;7386094;19;20109;-74
2022/10/04 15:05:22;;;;;;;0.30;0.30;;;;;;;;;;7383983;19;20128;-73
2022/10/04 15:07:54;;;;;;;0.30;0.30;;;;;;;;;;7385385;19;20114;-74
2022/10/04 15:10:35;;;;;;;0.30;0.30;;;;;;;;;;7382808;19;20101;-73
2022/10/04 15:13:03;;;;;;;2.83;0.82;;;;;;;;;;7384569;19;20630;-74
2022/10/04 15:16:06;;;;;;;0.45;0.45;;;;;;;;;;7383923;19;20129;-73
2022/10/04 15:18:38;;;;;;;0.35;0.35;;;;;;;;;;7382205;19;20631;-73
2022/10/04 15:21:19;;;;;;;0.30;0.30;;;;;;;;;;7384275;19;20124;-71
2022/10/04 15:23:52;;;;;;;0.20;0.20;;;;;;;;;;7381496;19;20160;-71
2022/10/04 15:26:17;;;;;;;0.82;0.82;;;;;;;;;;7386023;19;20109;-71
2022/10/04 15:28:48;;;;;;;0.30;0.30;;;;;;;;;;7385728;19;20520;-71
2022/10/04 15:31:51;;;;;;;0.40;0.40;;;;;;;;;;7384498;19;20109;-73
2022/10/04 15:34:33;;;;;;;0.20;0.20;;;;;;;;;;7385155;19;20159;-73
2022/10/04 15:37:39;;;;;;;0.43;0.43;;;;;;;;;;7386362;19;20616;-73
2022/10/04 15:40:27;;;;;;;0.30;0.30;;;;;;;;;;7379746;19;20134;-73
2022/10/04 15:43:18;;;;;;;0.75;0.75;;;;;;;;;;7376425;19;20120;-73
2022/10/04 15:46:05;;;;;;;0.20;0.20;;;;;;;;;;7383520;19;20132;-74
2022/10/04 15:49:17;;;;;;;0.30;0.30;;;;;;;;;;7384541;19;20638;-73
2022/10/04 15:51:52;;;;;;;0.32;0.32;;;;;;;;;;7379329;19;20543;-73
2022/10/04 15:54:32;;;;;;;0.20;0.20;;;;;;;;;;7375859;19;20131;-73
2022/10/04 15:57:02;;;;;;;0.30;0.30;;;;;;;;;;7378763;19;20600;-73
2022/10/04 15:59:47;;;;;;;0.30;0.30;;;;;;;;;;7383075;19;20129;-73
2022/10/04 16:02:16;;;;;;;1.55;0.93;;;;;;;;;;7385399;19;20113;-74
2022/10/04 16:04:47;;;;;;;0.38;0.38;;;;;;;;;;7387575;19;20232;-73
2022/10/04 16:07:31;;;;;;;0.20;0.20;;;;;;;;;;7393867;19;20457;-73
2022/10/04 16:10:14;;;;;;;0.30;0.30;;;;;;;;;;7382351;19;20721;-73
2022/10/04 16:13:00;;;;;;;0.30;0.30;;;;;;;;;;7388416;19;20109;-74
2022/10/04 16:15:36;;;;;;;0.50;0.50;;;;;;;;;;7390100;19;20157;-73
2022/10/04 16:18:04;;;;;;;0.20;0.20;;;;;;;;;;7390009;19;20617;-73
2022/10/04 16:20:45;;;;;;;0.30;0.30;;;;;;;;;;7390009;19;20139;-73
2022/10/04 16:23:26;;;;;;;0.30;0.30;;;;;;;;;;7386217;19;20102;-73
2022/10/04 16:26:00;;;;;;;0.30;0.30;;;;;;;;;;7388515;19;20136;-73
2022/10/04 16:28:29;;;;;;;0.38;0.38;;;;;;;;;;7387463;19;20132;-73
2022/10/04 16:31:54;;;;;;;0.30;0.30;;;;;;;;;;7382563;19;20129;-73
2022/10/04 16:34:40;;;;;;;0.40;0.40;;;;;;;;;;7381334;19;20125;-73
2022/10/04 16:37:08;;;;;;;0.30;0.30;;;;;;;;;;7374495;19;20118;-73
2022/10/04 16:42:25;;;;;;;0.30;0.30;;;;;;;;;;7380595;19;20465;-73
2022/10/04 16:45:13;;;;;;;0.30;0.30;;;;;;;;;;7379226;19;20129;-73
2022/10/04 16:47:54;;;;;;;0.30;0.30;;;;;;;;;;7382056;19;20125;-73
2022/10/04 16:51:01;;;;;;;0.35;0.35;;;;;;;;;;7377691;19;20127;-73
2022/10/04 16:53:45;;;;;;;0.30;0.30;;;;;;;;;;7387307;19;20132;-73
2022/10/04 16:56:28;;;;;;;1.30;0.88;;;;;;;;;;7386841;19;20227;-73
2022/10/04 16:59:00;;;;;;;0.30;0.30;;;;;;;;;;7382755;19;20117;-73
2022/10/04 17:01:32;;;;;;;0.30;0.30;;;;;;;;;;7382812;19;20113;-73
2022/10/04 17:04:25;;;;;;;0.30;0.30;;;;;;;;;;7377858;19;20142;-73
2022/10/04 17:07:17;;;;;;;0.20;0.20;;;;;;;;;;7383770;19;20121;-73
2022/10/04 17:09:52;;;;;;;0.20;0.20;;;;;;;;;;7389333;19;20121;-72
2022/10/04 17:12:44;;;;;;;0.30;0.30;;;;;;;;;;7386105;19;20141;-73
2022/10/04 17:15:18;;;;;;;0.30;0.30;;;;;;;;;;7377869;19;20532;-73
2022/10/04 17:17:56;;;;;;;0.30;0.30;;;;;;;;;;7380888;19;20590;-73
2022/10/04 17:20:44;;;;;;;0.30;0.30;;;;;;;;;;7386665;19;20117;-73
2022/10/04 17:23:37;;;;;;;0.30;0.30;;;;;;;;;;7380615;19;20139;-73
2022/10/04 17:26:25;;;;;;;0.30;0.30;;;;;;;;;;7387022;19;20599;-73
2022/10/04 17:29:24;;;;;;;0.47;0.47;;;;;;;;;;7387308;19;20655;-73
2022/10/04 17:31:56;;;;;;;0.60;0.60;;;;;;;;;;7384314;19;20152;-73
2022/10/04 17:34:35;;;;;;;0.30;0.30;;;;;;;;;;7385640;19;20480;-73
2022/10/04 17:37:19;;;;;;;0.30;0.30;;;;;;;;;;7388287;19;20129;-74
2022/10/04 17:39:52;;;;;;;0.30;0.30;;;;;;;;;;7381102;19;20125;-73
2022/10/04 17:42:30;;;;;;;0.30;0.30;;;;;;;;;;7377398;19;20141;-73
2022/10/04 17:45:31;;;;;;;0.30;0.30;;;;;;;;;;7379949;19;20125;-74
2022/10/04 17:57:38;;;;;;;0.38;0.38;;;;;;;;;;7383027;19;20198;-71
2022/10/04 18:00:08;;;;;;;0.30;0.30;;;;;;;;;;7377380;19;20128;-72
2022/10/04 18:02:36;;;;;;;0.30;0.30;;;;;;;;;;7379995;19;20124;-71
2022/10/04 18:05:17;;;;;;;0.30;0.30;;;;;;;;;;7379423;19;20463;-71
2022/10/04 18:08:10;;;;;;;0.20;0.20;;;;;;;;;;7382305;19;20113;-73
2022/10/04 18:11:05;;;;;;;0.30;0.30;;;;;;;;;;7364462;19;20523;-71
2022/10/04 18:13:34;;;;;;;0.30;0.30;;;;;;;;;;7382583;19;20109;-73
2022/10/04 18:16:09;;;;;;;0.30;0.30;;;;;;;;;;7379375;19;20121;-71
2022/10/04 18:18:39;;;;;;;0.30;0.30;;;;;;;;;;7366526;19;20567;-72
2022/10/04 18:21:19;;;;;;;0.30;0.30;;;;;;;;;;7372210;19;20117;-72
2022/10/04 18:23:52;;;;;;;0.40;0.40;;;;;;;;;;7380298;19;20117;-71
2022/10/04 18:26:17;;;;;;;0.30;0.30;;;;;;;;;;7367798;19;20211;-72
2022/10/04 18:28:46;;;;;;;0.30;0.30;;;;;;;;;;7374454;19;20132;-72
2022/10/04 18:31:30;;;;;;;0.30;0.30;;;;;;;;;;7360321;19;20125;-72
2022/10/04 18:34:15;;;;;;;0.30;0.30;;;;;;;;;;7368517;19;20582;-71
2022/10/04 18:37:18;;;;;;;0.30;0.30;;;;;;;;;;7368753;19;20121;-72
2022/10/04 18:39:46;;;;;;;1.00;0.80;;;;;;;;;;7371146;19;20140;-71
2022/10/04 18:42:19;;;;;;;0.43;0.43;;;;;;;;;;7370802;19;20136;-72
2022/10/04 18:44:57;;;;;;;0.40;0.40;;;;;;;;;;7378270;19;20188;-70
2022/10/04 18:47:35;;;;;;;1.33;0.70;;;;;;;;;;7386219;19;20590;-72
2022/10/04 18:50:15;;;;;;;0.75;0.75;;;;;;;;;;7384351;19;20113;-72
2022/10/04 18:52:52;;;;;;;0.30;0.30;;;;;;;;;;7382987;19;20219;-72
2022/10/04 18:55:28;;;;;;;0.65;0.65;;;;;;;;;;7376355;19;21153;-72
2022/10/04 19:04:47;;;;;;;0.43;0.43;;;;;;;;;;7378230;19;20696;-73
2022/10/04 19:07:25;;;;;;;0.30;0.30;;;;;;;;;;7373635;19;20132;-70
2022/10/04 19:10:10;;;;;;;0.40;0.40;;;;;;;;;;7383444;19;20184;-72
2022/10/04 19:12:49;;;;;;;0.30;0.30;;;;;;;;;;7384009;19;20109;-72
2022/10/04 19:15:32;;;;;;;0.23;0.23;;;;;;;;;;7383216;19;20690;-71
2022/10/04 19:18:32;;;;;;;0.30;0.30;;;;;;;;;;7386283;19;20180;-71
2022/10/04 19:21:00;;;;;;;0.50;0.43;;;;;;;;;;7382341;19;20097;-72
2022/10/04 19:23:42;;;;;;;0.50;0.50;;;;;;;;;;7380907;19;20130;-72
2022/10/04 19:26:23;;;;;;;0.30;0.30;;;;;;;;;;7379638;19;20477;-72
2022/10/04 19:29:19;;;;;;;7.33;0.53;;;;;;;;;;7380693;19;20690;-71
2022/10/04 19:31:55;;;;;;;0.83;0.43;;;;;;;;;;7379842;19;20109;-72
2022/10/04 19:35:00;;;;;;;0.40;0.40;;;;;;;;;;7377506;19;20145;-72
2022/10/04 19:37:30;;;;;;;0.30;0.30;;;;;;;;;;7370460;19;20147;-70
2022/10/04 19:40:15;;;;;;;0.40;0.40;;;;;;;;;;7377597;19;20105;-72
2022/10/04 19:42:50;;;;;;;0.30;0.30;;;;;;;;;;7380603;19;20125;-72
2022/10/04 19:45:34;;;;;;;0.53;0.53;;;;;;;;;;7380774;19;20133;-71
2022/10/04 19:48:06;;;;;;;0.30;0.30;;;;;;;;;;7382451;19;20113;-70
2022/10/04 19:50:36;;;;;;;0.30;0.30;;;;;;;;;;7381191;19;20632;-72
2022/10/04 19:53:06;;;;;;;1.10;0.80;;;;;;;;;;7381406;19;20124;-72
2022/10/04 19:55:52;;;;;;;0.30;0.30;;;;;;;;;;7380480;19;20153;-72
2022/10/04 19:58:54;;;;;;;0.30;0.30;;;;;;;;;;7383224;19;20125;-72
2022/10/04 20:01:22;;;;;;;0.50;0.50;;;;;;;;;;7373720;19;20149;-70
2022/10/04 20:06:32;;;;;;;0.40;0.40;;;;;;;;;;7383330;19;20124;-70
2022/10/04 20:09:23;;;;;;;0.30;0.30;;;;;;;;;;7383401;19;20101;-72
2022/10/04 20:11:50;;;;;;;4.17;0.80;;;;;;;;;;7381463;19;20105;-71
2022/10/04 20:14:16;;;;;;;1.20;0.67;;;;;;;;;;7382938;19;20117;-71
2022/10/04 20:16:47;;;;;;;0.50;0.50;;;;;;;;;;7381271;19;20116;-72
2022/10/04 20:19:27;;;;;;;0.60;0.60;;;;;;;;;;7377035;19;20549;-70
2022/10/04 20:22:13;;;;;;;0.30;0.30;;;;;;;;;;7381050;19;20138;-71
2022/10/04 20:24:38;;;;;;;0.77;0.77;;;;;;;;;;7381780;19;20144;-72
2022/10/04 20:27:05;;;;;;;1.00;1.00;;;;;;;;;;7381834;19;20117;-71
2022/10/04 20:29:36;;;;;;;0.40;0.40;;;;;;;;;;7380484;19;20113;-72
2022/10/04 20:36:01;;;;;;;0.40;0.40;;;;;;;;;;7376905;19;20115;-72
2022/10/04 20:38:49;;;;;;;0.40;0.40;;;;;;;;;;7380383;19;20124;-72
2022/10/04 20:41:26;;;;;;;0.30;0.30;;;;;;;;;;7383404;19;20105;-72
2022/10/04 20:43:56;;;;;;;0.47;0.47;;;;;;;;;;7382003;19;20563;-72
2022/10/04 20:46:27;;;;;;;0.50;0.50;;;;;;;;;;7379965;19;20121;-72
2022/10/04 20:48:53;;;;;;;0.50;0.50;;;;;;;;;;7380863;19;20117;-72
2022/10/04 20:51:21;;;;;;;0.40;0.40;;;;;;;;;;7387137;19;20659;-72
2022/10/04 20:53:49;;;;;;;1.23;0.93;;;;;;;;;;7389065;19;20121;-72
2022/10/04 20:56:28;;;;;;;0.50;0.50;;;;;;;;;;7388073;19;20480;-71
2022/10/04 20:58:55;;;;;;;0.70;0.70;;;;;;;;;;7389739;19;20441;-72
2022/10/04 21:04:31;;;;;;;0.80;0.80;;;;;;;;;;7377561;19;20154;-72
2022/10/04 21:06:57;;;;;;;0.50;0.50;;;;;;;;;;7386693;19;20603;-72
2022/10/04 21:09:24;;;;;;;0.40;0.40;;;;;;;;;;7384019;19;20117;-72
2022/10/04 21:11:51;;;;;;;0.50;0.50;;;;;;;;;;7382105;19;20126;-72
2022/10/04 21:14:24;;;;;;;0.90;0.90;;;;;;;;;;7383728;19;20132;-71
2022/10/04 21:16:51;;;;;;;0.60;0.60;;;;;;;;;;7386516;19;20588;-71
2022/10/04 21:19:28;;;;;;;0.30;0.30;;;;;;;;;;7386975;19;20109;-72
2022/10/04 21:21:54;;;;;;;0.50;0.50;;;;;;;;;;7382768;19;20125;-72
2022/10/04 21:24:38;;;;;;;0.20;0.20;;;;;;;;;;7382279;19;20121;-72
2022/10/04 21:27:05;;;;;;;0.50;0.50;;;;;;;;;;7378875;19;20184;-72
2022/10/04 21:29:30;;;;;;;0.57;0.57;;;;;;;;;;7369069;19;20116;-70
2022/10/04 21:31:57;;;;;;;2.27;0.67;;;;;;;;;;7381067;19;20168;-70
2022/10/04 21:34:22;;;;;;;4.37;0.67;;;;;;;;;;7383444;19;20128;-71
2022/10/04 21:36:48;;;;;;;0.30;0.30;;;;;;;;;;7376444;19;20113;-72
2022/10/04 21:39:13;;;;;;;0.50;0.50;;;;;;;;;;7378039;19;20120;-72
2022/10/04 21:41:39;;;;;;;0.73;0.73;;;;;;;;;;7383609;19;20113;-71
2022/10/04 21:44:04;;;;;;;0.20;0.20;;;;;;;;;;7387160;19;20129;-71
2022/10/04 21:46:29;;;;;;;0.30;0.30;;;;;;;;;;7384477;19;20105;-72
2022/10/04 21:48:55;;;;;;;0.30;0.30;;;;;;;;;;7382825;19;20191;-71
2022/10/04 21:51:20;;;;;;;0.30;0.30;;;;;;;;;;7379693;19;20537;-72
2022/10/04 21:53:45;;;;;;;0.20;0.20;;;;;;;;;;7384033;19;20113;-72
2022/10/04 21:56:11;;;;;;;0.40;0.40;;;;;;;;;;7378435;19;20189;-72
2022/10/04 21:58:36;;;;;;;0.47;0.47;;;;;;;;;;7385073;19;20429;-71
2022/10/04 22:01:01;;;;;;;0.40;0.40;;;;;;;;;;7377313;19;20113;-71
2022/10/04 22:03:26;;;;;;;0.70;0.70;;;;;;;;;;7378653;19;20108;-72
2022/10/04 22:05:52;;;;;;;0.70;0.70;;;;;;;;;;7380643;19;20123;-72
2022/10/04 22:08:17;;;;;;;0.43;0.43;;;;;;;;;;7381297;19;20117;-72
2022/10/04 22:10:42;;;;;;;0.40;0.40;;;;;;;;;;7385871;19;20136;-72
2022/10/04 22:13:08;;;;;;;0.40;0.40;;;;;;;;;;7386421;19;20444;-72
2022/10/04 22:15:34;;;;;;;1.60;0.60;;;;;;;;;;7385482;19;20599;-72
2022/10/04 22:17:59;;;;;;;0.57;0.57;;;;;;;;;;7385069;19;20141;-71
2022/10/04 22:20:25;;;;;;;0.50;0.50;;;;;;;;;;7380730;19;20121;-72
2022/10/04 22:22:52;;;;;;;0.57;0.57;;;;;;;;;;7382279;19;20391;-71
2022/10/04 22:25:19;;;;;;;0.30;0.30;;;;;;;;;;7380255;19;20125;-72
2022/10/04 22:27:45;;;;;;;0.40;0.40;;;;;;;;;;7383890;19;20170;-71
2022/10/04 22:30:18;;;;;;;0.57;0.57;;;;;;;;;;7376420;19;20158;-72
2022/10/04 22:32:44;;;;;;;0.73;0.53;;;;;;;;;;7380620;19;20151;-71
2022/10/04 22:35:12;;;;;;;0.33;0.33;;;;;;;;;;7376940;19;20667;-71
2022/10/04 22:37:38;;;;;;;0.40;0.40;;;;;;;;;;7376814;19;20125;-71
2022/10/04 22:40:06;;;;;;;0.50;0.50;;;;;;;;;;7378207;19;20106;-71
2022/10/04 22:42:31;;;;;;;0.40;0.40;;;;;;;;;;7376507;19;20130;-71
2022/10/04 22:44:59;;;;;;;0.50;0.50;;;;;;;;;;7374856;19;20128;-71
2022/10/04 22:47:25;;;;;;;1.33;1.23;;;;;;;;;;7379752;19;20101;-71
2022/10/04 22:49:51;;;;;;;0.30;0.30;;;;;;;;;;7383421;19;20568;-71
2022/10/04 22:52:23;;;;;;;0.60;0.57;;;;;;;;;;7380159;19;20134;-71